Time;durP1;ratioP1;P1;durP2;ratioP2;P2;SDS_P1;SDS_P2;PMS_P1;PMS_P2;Temp;Humidity;BMP_temperature;BMP_pressure;BME280_temperature;BME280_humidity;BME280_pressure;Samples;Min_cycle;Max_cycle;Signal;HPM_P1;HPM_P2
2022/04/18 00:05:28;;;;;;;;;;;19.20;40.50;;;;;;20762564;28;20008;-67
2022/04/18 00:15:30;;;;;;;;;;;19.10;40.50;;;;;;20795110;28;20067;-62
2022/04/18 00:25:32;;;;;;;;;;;19.10;40.70;;;;;;20762510;28;20012;-62
2022/04/18 00:35:34;;;;;;;;;;;19.00;40.90;;;;;;20761782;28;20071;-62
2022/04/18 00:45:35;;;;;;;;;;;18.90;40.90;;;;;;20761394;28;19925;-62
2022/04/18 00:55:37;;;;;;;;;;;18.80;40.80;;;;;;20760221;28;19968;-64
2022/04/18 01:05:38;;;;;;;;;;;18.70;40.90;;;;;;20763617;28;19927;-63
2022/04/18 01:15:40;;;;;;;;;;;18.50;41.10;;;;;;20758119;28;19929;-63
2022/04/18 01:36:07;;;;;;;;;;;18.30;41.50;;;;;;20757270;28;20406;-63
2022/04/18 01:46:16;;;;;;;;;;;18.10;41.80;;;;;;20755983;28;19928;-60
2022/04/18 01:56:21;;;;;;;;;;;17.70;44.10;;;;;;20755287;28;20384;-63
2022/04/18 02:06:22;;;;;;;;;;;17.40;45.90;;;;;;20785770;28;19968;-63
2022/04/18 02:16:28;;;;;;;;;;;16.90;48.30;;;;;;20754424;28;20253;-64
2022/04/18 02:26:36;;;;;;;;;;;16.40;49.40;;;;;;20753911;28;19921;-63
2022/04/18 02:36:39;;;;;;;;;;;16.00;51.50;;;;;;20751646;28;19972;-63
2022/04/18 02:46:42;;;;;;;;;;;15.50;52.50;;;;;;20751225;28;19922;-62
2022/04/18 02:56:45;;;;;;;;;;;15.20;53.50;;;;;;20750537;28;20383;-62
2022/04/18 03:06:48;;;;;;;;;;;14.90;53.80;;;;;;20749893;28;19921;-62
2022/04/18 03:16:51;;;;;;;;;;;14.70;53.70;;;;;;20748335;28;19925;-64
2022/04/18 03:26:57;;;;;;;;;;;;;;;;;;20749242;28;19961;-62
2022/04/18 03:47:19;;;;;;;;;;;14.60;54.00;;;;;;20747360;28;19922;-62
2022/04/18 03:57:21;;;;;;;;;;;14.40;54.80;;;;;;20747333;28;19968;-63
2022/04/18 04:07:23;;;;;;;;;;;;;;;;;;20778187;28;19922;-63
2022/04/18 04:17:26;;;;;;;;;;;14.40;54.80;;;;;;20746602;28;20012;-62
2022/04/18 04:27:31;;;;;;;;;;;14.20;54.70;;;;;;20747132;28;20356;-63
2022/04/18 04:37:33;;;;;;;;;;;14.30;54.90;;;;;;20745477;28;19922;-63
2022/04/18 04:47:35;;;;;;;;;;;14.20;55.20;;;;;;20752870;28;19922;-63
2022/04/18 04:57:36;;;;;;;;;;;14.10;54.60;;;;;;20761071;28;19928;-63
2022/04/18 05:07:38;;;;;;;;;;;14.00;55.40;;;;;;20759984;28;20056;-62
2022/04/18 05:17:39;;;;;;;;;;;13.90;54.90;;;;;;20759434;28;20007;-63
2022/04/18 05:27:41;;;;;;;;;;;13.90;55.50;;;;;;20757431;28;19932;-63
2022/04/18 05:37:43;;;;;;;;;;;13.90;55.30;;;;;;20757627;28;19929;-64
2022/04/18 05:47:44;;;;;;;;;;;13.80;55.20;;;;;;20755991;28;19922;-62
2022/04/18 05:57:46;;;;;;;;;;;13.80;54.80;;;;;;20753886;28;19928;-63
2022/04/18 06:07:48;;;;;;;;;;;13.70;54.70;;;;;;20755946;28;19944;-62
2022/04/18 06:17:50;;;;;;;;;;;13.80;54.80;;;;;;20755380;28;20016;-63
2022/04/18 06:27:51;;;;;;;;;;;13.80;54.40;;;;;;20753148;28;19983;-63
2022/04/18 06:37:53;;;;;;;;;;;13.90;54.00;;;;;;20754057;28;20016;-63
2022/04/18 06:47:54;;;;;;;;;;;14.20;53.50;;;;;;20750618;28;19952;-64
2022/04/18 06:57:56;;;;;;;;;;;14.60;51.20;;;;;;20751540;28;19921;-62
2022/04/18 07:07:58;;;;;;;;;;;15.20;48.10;;;;;;20749216;28;19960;-64
2022/04/18 07:18:00;;;;;;;;;;;16.00;45.90;;;;;;20752263;28;19968;-64
2022/04/18 07:28:03;;;;;;;;;;;16.70;42.60;;;;;;20769575;28;19948;-64
2022/04/18 07:48:25;;;;;;;;;;;17.30;40.30;;;;;;20745233;28;19921;-61
2022/04/18 07:58:29;;;;;;;;;;;;;;;;;;20675498;28;19922;-71
2022/04/18 08:08:31;;;;;;;;;;;18.30;39.10;;;;;;20668960;28;20016;-63
2022/04/18 08:18:36;;;;;;;;;;;;;;;;;;20670198;28;20343;-67
2022/04/18 08:28:38;;;;;;;;;;;19.80;36.50;;;;;;20684892;28;20020;-72
2022/04/18 08:38:40;;;;;;;;;;;19.20;37.60;;;;;;20684242;28;20303;-72
2022/04/18 08:59:01;;;;;;;;;;;19.50;37.30;;;;;;20680280;28;19926;-66
2022/04/18 09:09:03;;;;;;;;;;;;;;;;;;20680461;28;19922;-68
2022/04/18 09:19:05;;;;;;;;;;;;;;;;;;20679223;28;20300;-68
2022/04/18 09:29:07;;;;;;;;;;;;;;;;;;20677449;28;19921;-70
2022/04/18 09:39:09;;;;;;;;;;;;;;;;;;20675621;28;20005;-61
2022/04/18 09:49:11;;;;;;;;;;;21.40;36.80;;;;;;20683723;28;19925;-63
2022/04/18 09:59:14;;;;;;;;;;;20.60;38.60;;;;;;20695406;28;19965;-68
2022/04/18 10:09:16;;;;;;;;;;;20.60;38.10;;;;;;20707217;28;19922;-65
2022/04/18 10:19:47;;;;;;;;;;;20.70;38.30;;;;;;20682825;28;20012;-59
2022/04/18 10:29:51;;;;;;;;;;;20.90;38.30;;;;;;20703337;28;19956;-58
2022/04/18 10:40:05;;;;;;;;;;;21.30;37.00;;;;;;20689257;28;20490;-60
2022/04/18 10:50:18;;;;;;;;;;;21.70;36.60;;;;;;20650631;28;19921;-57
2022/04/18 11:00:20;;;;;;;;;;;;;;;;;;20732172;28;19943;-62
2022/04/18 11:10:23;;;;;;;;;;;23.10;34.90;;;;;;20750486;28;19929;-62
2022/04/18 11:20:35;;;;;;;;;;;22.70;35.40;;;;;;20750171;28;19921;-61
2022/04/18 11:30:37;;;;;;;;;;;22.70;34.80;;;;;;20749088;28;19928;-62
2022/04/18 11:40:40;;;;;;;;;;;23.10;33.30;;;;;;20749656;28;19927;-61
2022/04/18 11:50:44;;;;;;;;;;;;;;;;;;20749380;28;19925;-62
2022/04/18 12:11:08;;;;;;;;;;;24.90;32.10;;;;;;20747105;28;19943;-61
2022/04/18 12:21:14;;;;;;;;;;;24.40;32.70;;;;;;20747774;28;20012;-61
2022/04/18 12:31:15;;;;;;;;;;;24.20;33.20;;;;;;20747203;28;19921;-61
2022/04/18 12:41:43;;;;;;;;;;;24.40;32.60;;;;;;20744980;28;19964;-61
2022/04/18 12:51:49;;;;;;;;;;;24.70;31.70;;;;;;20744920;28;20022;-61
2022/04/18 13:01:50;;;;;;;;;;;;;;;;;;20776588;28;19968;-62
2022/04/18 13:11:52;;;;;;;;;;;;;;;;;;20755152;28;19922;-61
2022/04/18 13:21:55;;;;;;;;;;;25.10;31.30;;;;;;20789572;28;20016;-62
2022/04/18 13:31:58;;;;;;;;;;;;;;;;;;20757255;28;19925;-61
2022/04/18 13:42:02;;;;;;;;;;;25.90;30.90;;;;;;20757568;28;19925;-61
2022/04/18 13:52:09;;;;;;;;;;;25.90;31.30;;;;;;20756306;28;19928;-62
2022/04/18 14:02:10;;;;;;;;;;;26.10;31.20;;;;;;20788606;28;19961;-62
2022/04/18 14:12:15;;;;;;;;;;;25.80;31.80;;;;;;20756199;28;19928;-61
2022/04/18 14:22:19;;;;;;;;;;;26.00;31.30;;;;;;20754085;28;19995;-60
2022/04/18 14:32:21;;;;;;;;;;;26.00;31.30;;;;;;20753904;28;20431;-62
2022/04/18 14:42:24;;;;;;;;;;;25.90;30.20;;;;;;20751952;28;20430;-64
2022/04/18 14:52:26;;;;;;;;;;;26.00;30.60;;;;;;20750914;28;19928;-62
2022/04/18 15:02:29;;;;;;;;;;;;;;;;;;20751200;28;20012;-62
2022/04/18 15:12:30;;;;;;;;;;;26.30;29.30;;;;;;20751302;28;20280;-65
2022/04/18 15:22:32;;;;;;;;;;;26.10;28.40;;;;;;20750015;28;19960;-64
2022/04/18 15:32:34;;;;;;;;;;;26.10;29.00;;;;;;20747394;28;19922;-62
2022/04/18 15:42:36;;;;;;;;;;;26.10;28.80;;;;;;20748891;28;19965;-61
2022/04/18 15:52:38;;;;;;;;;;;25.90;28.80;;;;;;20747713;28;19968;-66
2022/04/18 16:02:39;;;;;;;;;;;25.90;29.20;;;;;;20747040;28;19921;-62
2022/04/18 16:12:42;;;;;;;;;;;26.00;29.40;;;;;;20748302;28;19925;-65
2022/04/18 16:22:44;;;;;;;;;;;26.00;28.60;;;;;;20747689;28;19921;-61
2022/04/18 16:32:45;;;;;;;;;;;26.00;27.90;;;;;;20746594;28;19928;-76
2022/04/18 16:53:07;;;;;;;;;;;25.70;29.20;;;;;;20761570;28;20375;-68
2022/04/18 17:03:09;;;;;;;;;;;;;;;;;;20759329;28;20008;-61
2022/04/18 17:13:10;;;;;;;;;;;25.50;29.20;;;;;;20759361;28;20298;-59
2022/04/18 17:23:12;;;;;;;;;;;25.30;29.50;;;;;;20758809;28;20020;-59
2022/04/18 17:33:14;;;;;;;;;;;25.10;29.80;;;;;;20757574;28;20435;-58
2022/04/18 17:43:15;;;;;;;;;;;25.00;30.70;;;;;;20787567;28;19921;-59
2022/04/18 18:03:38;;;;;;;;;;;24.70;32.70;;;;;;20755824;28;19921;-59
2022/04/18 18:13:41;;;;;;;;;;;24.50;33.90;;;;;;20754351;28;19944;-59
2022/04/18 18:23:43;;;;;;;;;;;24.20;34.80;;;;;;20752671;28;19921;-60
2022/04/18 18:33:45;;;;;;;;;;;23.90;34.70;;;;;;20751822;28;19921;-58
2022/04/18 18:43:46;;;;;;;;;;;23.60;35.40;;;;;;20751727;28;20376;-61
2022/04/18 18:53:48;;;;;;;;;;;23.30;36.00;;;;;;20750968;28;20003;-66
2022/04/18 19:03:50;;;;;;;;;;;23.10;36.50;;;;;;20750676;28;19944;-60
2022/04/18 19:13:53;;;;;;;;;;;22.90;36.90;;;;;;20750896;28;20012;-63
2022/04/18 19:34:17;;;;;;;;;;;22.50;37.80;;;;;;20749644;28;19953;-60
2022/04/18 19:44:18;;;;;;;;;;;22.20;38.50;;;;;;20748483;28;20265;-65
2022/04/18 19:54:20;;;;;;;;;;;22.10;38.90;;;;;;20748195;28;19928;-60
2022/04/18 20:04:22;;;;;;;;;;;21.90;39.20;;;;;;20747439;28;19925;-60
2022/04/18 20:14:24;;;;;;;;;;;21.80;39.90;;;;;;20779731;28;19929;-66
2022/04/18 20:24:25;;;;;;;;;;;21.70;40.20;;;;;;20764512;28;19922;-59
2022/04/18 20:34:27;;;;;;;;;;;21.40;40.80;;;;;;20762908;28;19921;-60
2022/04/18 20:44:28;;;;;;;;;;;21.20;41.80;;;;;;20760821;28;20026;-59
2022/04/18 21:04:49;;;;;;;;;;;20.90;42.20;;;;;;20759505;28;19921;-59
2022/04/18 21:14:51;;;;;;;;;;;20.80;42.70;;;;;;20759573;28;20392;-61
2022/04/18 21:24:53;;;;;;;;;;;20.70;43.00;;;;;;20757436;28;19925;-60
2022/04/18 21:34:55;;;;;;;;;;;20.50;43.90;;;;;;20757072;28;20296;-64
2022/04/18 21:44:57;;;;;;;;;;;20.30;43.90;;;;;;20787453;28;20387;-62
2022/04/18 21:54:59;;;;;;;;;;;20.10;44.50;;;;;;20755273;28;20329;-65
2022/04/18 22:05:01;;;;;;;;;;;19.90;44.90;;;;;;20755117;28;19976;-62
2022/04/18 22:15:03;;;;;;;;;;;19.70;45.80;;;;;;20754843;28;20352;-61
2022/04/18 22:25:05;;;;;;;;;;;19.60;46.20;;;;;;20754318;28;19968;-61
2022/04/18 22:35:07;;;;;;;;;;;19.30;46.60;;;;;;20754837;28;19922;-58
2022/04/18 22:45:09;;;;;;;;;;;19.20;47.00;;;;;;20753056;28;20371;-58
2022/04/18 22:55:11;;;;;;;;;;;19.20;46.50;;;;;;20752039;28;19921;-58
2022/04/18 23:15:33;;;;;;;;;;;19.30;44.70;;;;;;20750942;28;19932;-58
2022/04/18 23:25:35;;;;;;;;;;;19.20;44.90;;;;;;20750239;28;20320;-60
2022/04/18 23:35:37;;;;;;;;;;;19.10;44.80;;;;;;20750178;28;19921;-58
2022/04/18 23:45:39;;;;;;;;;;;19.00;45.40;;;;;;20749084;28;19921;-60
2022/04/18 23:55:41;;;;;;;;;;;18.90;46.00;;;;;;20778866;28;19928;-65
